sensor_id;sensor_type;location;lat;lon;timestamp;pressure;altitude;pressure_sealevel;temperature;humidity
53526;BME280;40551;50.478;19.378;2023-01-26T00:01:19;98613.57;;;-0.40;84.95
53526;BME280;40551;50.478;19.378;2023-01-26T00:03:51;98613.15;;;-0.42;85.02
53526;BME280;40551;50.478;19.378;2023-01-26T00:06:23;98615.19;;;-0.48;84.70
53526;BME280;40551;50.478;19.378;2023-01-26T00:08:56;98614.65;;;-0.52;85.09
53526;BME280;40551;50.478;19.378;2023-01-26T00:11:28;98612.40;;;-0.51;85.09
53526;BME280;40551;50.478;19.378;2023-01-26T00:14:01;98607.50;;;-0.48;85.31
53526;BME280;40551;50.478;19.378;2023-01-26T00:16:33;98597.80;;;-0.42;85.46
53526;BME280;40551;50.478;19.378;2023-01-26T00:19:03;98594.46;;;-0.34;85.66
53526;BME280;40551;50.478;19.378;2023-01-26T00:21:35;98588.49;;;-0.33;85.64
53526;BME280;40551;50.478;19.378;2023-01-26T00:24:07;98591.48;;;-0.31;85.60
53526;BME280;40551;50.478;19.378;2023-01-26T00:26:39;98584.31;;;-0.26;85.81
53526;BME280;40551;50.478;19.378;2023-01-26T00:29:09;98584.66;;;-0.20;85.68
53526;BME280;40551;50.478;19.378;2023-01-26T00:31:41;98584.02;;;-0.21;85.71
53526;BME280;40551;50.478;19.378;2023-01-26T00:34:11;98581.48;;;-0.17;85.50
53526;BME280;40551;50.478;19.378;2023-01-26T00:36:44;98582.85;;;-0.23;85.36
53526;BME280;40551;50.478;19.378;2023-01-26T00:39:14;98585.58;;;-0.27;84.98
53526;BME280;40551;50.478;19.378;2023-01-26T00:41:46;98587.55;;;-0.36;85.00
53526;BME280;40551;50.478;19.378;2023-01-26T00:44:40;98590.60;;;-0.40;84.90
53526;BME280;40551;50.478;19.378;2023-01-26T00:47:13;98589.91;;;-0.45;84.73
53526;BME280;40551;50.478;19.378;2023-01-26T00:49:45;98595.75;;;-0.47;84.82
53526;BME280;40551;50.478;19.378;2023-01-26T00:52:17;98589.92;;;-0.46;85.03
53526;BME280;40551;50.478;19.378;2023-01-26T00:54:47;98584.27;;;-0.46;84.80
53526;BME280;40551;50.478;19.378;2023-01-26T00:57:18;98581.55;;;-0.51;84.84
53526;BME280;40551;50.478;19.378;2023-01-26T00:59:48;98579.95;;;-0.49;85.15
53526;BME280;40551;50.478;19.378;2023-01-26T01:02:20;98583.11;;;-0.47;85.75
53526;BME280;40551;50.478;19.378;2023-01-26T01:04:50;98579.28;;;-0.38;85.70
53526;BME280;40551;50.478;19.378;2023-01-26T01:07:22;98573.79;;;-0.37;86.01
53526;BME280;40551;50.478;19.378;2023-01-26T01:09:54;98570.16;;;-0.31;85.75
53526;BME280;40551;50.478;19.378;2023-01-26T01:12:24;98575.46;;;-0.26;85.66
53526;BME280;40551;50.478;19.378;2023-01-26T01:14:57;98572.48;;;-0.29;85.49
53526;BME280;40551;50.478;19.378;2023-01-26T01:17:29;98570.19;;;-0.32;85.10
53526;BME280;40551;50.478;19.378;2023-01-26T01:19:59;98564.81;;;-0.34;84.99
53526;BME280;40551;50.478;19.378;2023-01-26T01:22:31;98559.09;;;-0.41;84.98
53526;BME280;40551;50.478;19.378;2023-01-26T01:25:01;98556.77;;;-0.38;85.34
53526;BME280;40551;50.478;19.378;2023-01-26T01:27:32;98553.30;;;-0.41;85.47
53526;BME280;40551;50.478;19.378;2023-01-26T01:30:03;98551.56;;;-0.40;85.21
53526;BME280;40551;50.478;19.378;2023-01-26T01:32:37;98548.31;;;-0.45;85.39
53526;BME280;40551;50.478;19.378;2023-01-26T01:35:11;98549.99;;;-0.44;85.32
53526;BME280;40551;50.478;19.378;2023-01-26T01:37:43;98546.57;;;-0.44;85.40
53526;BME280;40551;50.478;19.378;2023-01-26T01:40:13;98545.67;;;-0.43;85.46
53526;BME280;40551;50.478;19.378;2023-01-26T01:42:49;98544.55;;;-0.45;85.57
53526;BME280;40551;50.478;19.378;2023-01-26T01:45:43;98546.01;;;-0.43;85.39
53526;BME280;40551;50.478;19.378;2023-01-26T01:48:18;98543.52;;;-0.45;85.10
53526;BME280;40551;50.478;19.378;2023-01-26T01:50:52;98539.03;;;-0.43;85.22
53526;BME280;40551;50.478;19.378;2023-01-26T01:53:28;98537.47;;;-0.42;85.11
53526;BME280;40551;50.478;19.378;2023-01-26T01:56:06;98531.43;;;-0.40;85.23
53526;BME280;40551;50.478;19.378;2023-01-26T01:58:41;98534.89;;;-0.36;85.44
53526;BME280;40551;50.478;19.378;2023-01-26T02:01:13;98532.59;;;-0.33;85.26
53526;BME280;40551;50.478;19.378;2023-01-26T02:03:47;98537.95;;;-0.31;85.22
53526;BME280;40551;50.478;19.378;2023-01-26T02:06:23;98535.17;;;-0.29;85.21
53526;BME280;40551;50.478;19.378;2023-01-26T02:08:58;98533.30;;;-0.29;84.94
53526;BME280;40551;50.478;19.378;2023-01-26T02:11:33;98530.64;;;-0.31;84.72
53526;BME280;40551;50.478;19.378;2023-01-26T02:14:08;98529.64;;;-0.32;84.65
53526;BME280;40551;50.478;19.378;2023-01-26T02:16:42;98527.95;;;-0.37;84.29
53526;BME280;40551;50.478;19.378;2023-01-26T02:19:13;98524.77;;;-0.45;84.23
53526;BME280;40551;50.478;19.378;2023-01-26T02:21:50;98522.89;;;-0.55;84.67
53526;BME280;40551;50.478;19.378;2023-01-26T02:24:27;98522.05;;;-0.55;84.55
53526;BME280;40551;50.478;19.378;2023-01-26T02:27:00;98520.34;;;-0.55;84.84
53526;BME280;40551;50.478;19.378;2023-01-26T02:29:32;98508.86;;;-0.53;84.97
53526;BME280;40551;50.478;19.378;2023-01-26T02:32:06;98504.67;;;-0.50;84.93
53526;BME280;40551;50.478;19.378;2023-01-26T02:34:37;98504.73;;;-0.47;84.91
53526;BME280;40551;50.478;19.378;2023-01-26T02:37:13;98499.17;;;-0.43;85.02
53526;BME280;40551;50.478;19.378;2023-01-26T02:39:48;98501.06;;;-0.49;84.63
53526;BME280;40551;50.478;19.378;2023-01-26T02:42:24;98500.48;;;-0.52;84.41
53526;BME280;40551;50.478;19.378;2023-01-26T02:45:14;98498.84;;;-0.54;84.32
53526;BME280;40551;50.478;19.378;2023-01-26T02:47:48;98490.56;;;-0.56;84.45
53526;BME280;40551;50.478;19.378;2023-01-26T02:50:20;98489.72;;;-0.57;84.64
53526;BME280;40551;50.478;19.378;2023-01-26T02:52:52;98487.20;;;-0.57;84.72
53526;BME280;40551;50.478;19.378;2023-01-26T02:55:24;98481.80;;;-0.59;84.54
53526;BME280;40551;50.478;19.378;2023-01-26T02:57:59;98474.52;;;-0.60;84.40
53526;BME280;40551;50.478;19.378;2023-01-26T03:00:33;98470.92;;;-0.59;84.80
53526;BME280;40551;50.478;19.378;2023-01-26T03:03:11;98465.73;;;-0.57;84.94
53526;BME280;40551;50.478;19.378;2023-01-26T03:05:44;98466.73;;;-0.57;84.61
53526;BME280;40551;50.478;19.378;2023-01-26T03:08:16;98467.05;;;-0.61;84.44
53526;BME280;40551;50.478;19.378;2023-01-26T03:10:48;98460.52;;;-0.65;84.56
53526;BME280;40551;50.478;19.378;2023-01-26T03:13:20;98459.30;;;-0.69;84.43
53526;BME280;40551;50.478;19.378;2023-01-26T03:15:50;98455.41;;;-0.70;84.63
53526;BME280;40551;50.478;19.378;2023-01-26T03:18:25;98453.67;;;-0.74;84.86
53526;BME280;40551;50.478;19.378;2023-01-26T03:21:15;98457.13;;;-0.70;85.11
53526;BME280;40551;50.478;19.378;2023-01-26T03:24:07;98458.01;;;-0.66;85.45
53526;BME280;40551;50.478;19.378;2023-01-26T03:27:04;98462.60;;;-0.66;84.95
53526;BME280;40551;50.478;19.378;2023-01-26T03:30:05;98462.04;;;-0.69;84.82
53526;BME280;40551;50.478;19.378;2023-01-26T03:32:38;98460.63;;;-0.73;84.73
53526;BME280;40551;50.478;19.378;2023-01-26T03:35:13;98459.15;;;-0.75;84.75
53526;BME280;40551;50.478;19.378;2023-01-26T03:37:45;98457.62;;;-0.75;84.87
53526;BME280;40551;50.478;19.378;2023-01-26T03:40:45;98455.45;;;-0.76;84.87
53526;BME280;40551;50.478;19.378;2023-01-26T03:43:34;98449.21;;;-0.73;85.25
53526;BME280;40551;50.478;19.378;2023-01-26T03:46:23;98451.43;;;-0.68;85.33
53526;BME280;40551;50.478;19.378;2023-01-26T03:49:14;98445.67;;;-0.63;85.39
53526;BME280;40551;50.478;19.378;2023-01-26T03:52:03;98447.94;;;-0.60;85.22
53526;BME280;40551;50.478;19.378;2023-01-26T03:54:53;98444.98;;;-0.58;85.32
53526;BME280;40551;50.478;19.378;2023-01-26T03:57:42;98446.84;;;-0.58;84.87
53526;BME280;40551;50.478;19.378;2023-01-26T04:00:15;98446.23;;;-0.60;84.90
53526;BME280;40551;50.478;19.378;2023-01-26T04:02:47;98444.70;;;-0.60;84.94
53526;BME280;40551;50.478;19.378;2023-01-26T04:05:37;98436.84;;;-0.59;85.14
53526;BME280;40551;50.478;19.378;2023-01-26T04:08:48;98434.20;;;-0.57;85.14
53526;BME280;40551;50.478;19.378;2023-01-26T04:11:19;98430.39;;;-0.55;85.32
53526;BME280;40551;50.478;19.378;2023-01-26T04:13:50;98432.50;;;-0.52;85.09
53526;BME280;40551;50.478;19.378;2023-01-26T04:16:39;98428.77;;;-0.58;85.09
53526;BME280;40551;50.478;19.378;2023-01-26T04:19:28;98431.09;;;-0.56;85.09
53526;BME280;40551;50.478;19.378;2023-01-26T04:22:20;98424.99;;;-0.57;84.94
53526;BME280;40551;50.478;19.378;2023-01-26T04:24:51;98419.42;;;-0.58;84.66
53526;BME280;40551;50.478;19.378;2023-01-26T04:27:23;98415.14;;;-0.57;84.80
53526;BME280;40551;50.478;19.378;2023-01-26T04:29:56;98412.54;;;-0.56;84.81
53526;BME280;40551;50.478;19.378;2023-01-26T04:32:28;98411.00;;;-0.56;84.73
53526;BME280;40551;50.478;19.378;2023-01-26T04:35:00;98416.12;;;-0.61;84.33
53526;BME280;40551;50.478;19.378;2023-01-26T04:37:34;98414.44;;;-0.67;84.22
53526;BME280;40551;50.478;19.378;2023-01-26T04:40:09;98412.62;;;-0.69;84.52
53526;BME280;40551;50.478;19.378;2023-01-26T04:42:47;98408.26;;;-0.66;84.79
53526;BME280;40551;50.478;19.378;2023-01-26T04:45:22;98403.95;;;-0.64;84.85
53526;BME280;40551;50.478;19.378;2023-01-26T04:47:55;98400.22;;;-0.65;84.70
53526;BME280;40551;50.478;19.378;2023-01-26T04:50:28;98400.57;;;-0.65;84.65
53526;BME280;40551;50.478;19.378;2023-01-26T04:52:58;98402.02;;;-0.68;84.62
53526;BME280;40551;50.478;19.378;2023-01-26T04:55:30;98392.84;;;-0.78;84.36
53526;BME280;40551;50.478;19.378;2023-01-26T04:58:03;98394.02;;;-0.78;84.63
53526;BME280;40551;50.478;19.378;2023-01-26T05:00:34;98391.69;;;-0.75;84.91
53526;BME280;40551;50.478;19.378;2023-01-26T05:03:07;98394.42;;;-0.70;85.07
53526;BME280;40551;50.478;19.378;2023-01-26T05:05:40;98390.04;;;-0.66;84.90
53526;BME280;40551;50.478;19.378;2023-01-26T05:08:12;98387.27;;;-0.65;85.01
53526;BME280;40551;50.478;19.378;2023-01-26T05:10:42;98386.50;;;-0.62;84.77
53526;BME280;40551;50.478;19.378;2023-01-26T05:13:24;98383.81;;;-0.63;85.28
53526;BME280;40551;50.478;19.378;2023-01-26T05:16:25;98384.86;;;-0.59;85.08
53526;BME280;40551;50.478;19.378;2023-01-26T05:19:08;98381.11;;;-0.59;84.78
53526;BME280;40551;50.478;19.378;2023-01-26T05:21:57;98376.21;;;-0.60;84.56
53526;BME280;40551;50.478;19.378;2023-01-26T05:24:29;98380.67;;;-0.61;84.62
53526;BME280;40551;50.478;19.378;2023-01-26T05:27:03;98379.81;;;-0.60;84.71
53526;BME280;40551;50.478;19.378;2023-01-26T05:30:02;98380.97;;;-0.60;84.44
53526;BME280;40551;50.478;19.378;2023-01-26T05:32:36;98381.77;;;-0.63;84.21
53526;BME280;40551;50.478;19.378;2023-01-26T05:35:09;98382.49;;;-0.70;84.07
53526;BME280;40551;50.478;19.378;2023-01-26T05:37:41;98384.27;;;-0.77;84.02
53526;BME280;40551;50.478;19.378;2023-01-26T05:40:16;98384.13;;;-0.82;84.20
53526;BME280;40551;50.478;19.378;2023-01-26T05:42:48;98391.60;;;-0.87;84.27
53526;BME280;40551;50.478;19.378;2023-01-26T05:45:26;98388.15;;;-0.91;84.39
53526;BME280;40551;50.478;19.378;2023-01-26T05:48:01;98382.85;;;-0.90;84.71
53526;BME280;40551;50.478;19.378;2023-01-26T05:50:34;98383.56;;;-0.86;84.97
53526;BME280;40551;50.478;19.378;2023-01-26T05:53:24;98384.27;;;-0.82;85.29
53526;BME280;40551;50.478;19.378;2023-01-26T05:55:56;98387.35;;;-0.77;85.22
53526;BME280;40551;50.478;19.378;2023-01-26T05:58:29;98392.30;;;-0.73;85.16
53526;BME280;40551;50.478;19.378;2023-01-26T06:01:03;98395.91;;;-0.68;85.27
53526;BME280;40551;50.478;19.378;2023-01-26T06:03:39;98395.39;;;-0.68;85.45
53526;BME280;40551;50.478;19.378;2023-01-26T06:06:09;98391.60;;;-0.62;85.37
53526;BME280;40551;50.478;19.378;2023-01-26T06:08:51;98386.53;;;-0.62;85.41
53526;BME280;40551;50.478;19.378;2023-01-26T06:11:52;98389.23;;;-0.58;84.88
53526;BME280;40551;50.478;19.378;2023-01-26T06:14:28;98383.52;;;-0.55;85.12
53526;BME280;40551;50.478;19.378;2023-01-26T06:17:00;98379.99;;;-0.52;84.94
53526;BME280;40551;50.478;19.378;2023-01-26T06:19:31;98376.85;;;-0.49;84.82
53526;BME280;40551;50.478;19.378;2023-01-26T06:22:05;98374.73;;;-0.47;84.89
53526;BME280;40551;50.478;19.378;2023-01-26T06:24:39;98373.11;;;-0.45;84.83
53526;BME280;40551;50.478;19.378;2023-01-26T06:27:09;98376.58;;;-0.41;84.86
53526;BME280;40551;50.478;19.378;2023-01-26T06:29:43;98372.05;;;-0.44;85.11
53526;BME280;40551;50.478;19.378;2023-01-26T06:32:15;98366.29;;;-0.44;84.41
53526;BME280;40551;50.478;19.378;2023-01-26T06:34:50;98368.43;;;-0.42;84.56
53526;BME280;40551;50.478;19.378;2023-01-26T06:37:24;98369.80;;;-0.42;84.32
53526;BME280;40551;50.478;19.378;2023-01-26T06:39:56;98371.27;;;-0.40;84.41
53526;BME280;40551;50.478;19.378;2023-01-26T06:42:26;98367.94;;;-0.38;84.29
53526;BME280;40551;50.478;19.378;2023-01-26T06:44:57;98367.86;;;-0.40;84.57
53526;BME280;40551;50.478;19.378;2023-01-26T06:47:28;98361.96;;;-0.38;84.55
53526;BME280;40551;50.478;19.378;2023-01-26T06:49:59;98362.71;;;-0.39;84.48
53526;BME280;40551;50.478;19.378;2023-01-26T06:52:32;98364.55;;;-0.38;84.27
53526;BME280;40551;50.478;19.378;2023-01-26T06:55:17;98360.23;;;-0.37;84.30
53526;BME280;40551;50.478;19.378;2023-01-26T06:57:56;98357.91;;;-0.39;83.87
53526;BME280;40551;50.478;19.378;2023-01-26T07:00:57;98362.17;;;-0.44;83.81
53526;BME280;40551;50.478;19.378;2023-01-26T07:03:36;98362.23;;;-0.50;83.50
53526;BME280;40551;50.478;19.378;2023-01-26T07:06:08;98358.05;;;-0.58;83.67
53526;BME280;40551;50.478;19.378;2023-01-26T07:08:41;98348.63;;;-0.65;83.90
53526;BME280;40551;50.478;19.378;2023-01-26T07:11:13;98345.10;;;-0.72;83.81
53526;BME280;40551;50.478;19.378;2023-01-26T07:13:46;98345.12;;;-0.77;83.92
53526;BME280;40551;50.478;19.378;2023-01-26T07:16:18;98343.52;;;-0.81;84.23
53526;BME280;40551;50.478;19.378;2023-01-26T07:18:51;98348.83;;;-0.81;84.30
53526;BME280;40551;50.478;19.378;2023-01-26T07:21:23;98348.17;;;-0.82;84.32
53526;BME280;40551;50.478;19.378;2023-01-26T07:23:55;98346.46;;;-0.82;84.32
53526;BME280;40551;50.478;19.378;2023-01-26T07:26:27;98340.91;;;-0.83;84.41
53526;BME280;40551;50.478;19.378;2023-01-26T07:28:59;98346.39;;;-0.85;84.20
53526;BME280;40551;50.478;19.378;2023-01-26T07:31:29;98343.42;;;-0.87;84.22
53526;BME280;40551;50.478;19.378;2023-01-26T07:34:00;98338.98;;;-0.92;84.58
53526;BME280;40551;50.478;19.378;2023-01-26T07:36:31;98342.88;;;-0.91;84.60
53526;BME280;40551;50.478;19.378;2023-01-26T07:39:02;98345.88;;;-0.95;84.54
53526;BME280;40551;50.478;19.378;2023-01-26T07:41:37;98343.80;;;-0.94;84.54
53526;BME280;40551;50.478;19.378;2023-01-26T07:44:28;98347.66;;;-0.92;84.53
53526;BME280;40551;50.478;19.378;2023-01-26T07:46:58;98342.88;;;-0.91;84.51
53526;BME280;40551;50.478;19.378;2023-01-26T07:49:30;98345.89;;;-0.95;84.69
53526;BME280;40551;50.478;19.378;2023-01-26T07:52:03;98346.83;;;-0.92;84.83
53526;BME280;40551;50.478;19.378;2023-01-26T07:54:35;98348.80;;;-0.91;84.64
53526;BME280;40551;50.478;19.378;2023-01-26T07:57:07;98347.89;;;-0.88;84.73
53526;BME280;40551;50.478;19.378;2023-01-26T07:59:37;98354.79;;;-0.86;84.51
53526;BME280;40551;50.478;19.378;2023-01-26T08:02:10;98348.11;;;-0.90;84.61
53526;BME280;40551;50.478;19.378;2023-01-26T08:04:42;98349.87;;;-0.87;84.76
53526;BME280;40551;50.478;19.378;2023-01-26T08:07:14;98347.70;;;-0.83;84.76
53526;BME280;40551;50.478;19.378;2023-01-26T08:09:44;98347.59;;;-0.80;84.63
53526;BME280;40551;50.478;19.378;2023-01-26T08:12:16;98347.89;;;-0.84;84.66
53526;BME280;40551;50.478;19.378;2023-01-26T08:14:46;98347.39;;;-0.84;84.33
53526;BME280;40551;50.478;19.378;2023-01-26T08:17:18;98343.79;;;-0.88;84.58
53526;BME280;40551;50.478;19.378;2023-01-26T08:19:48;98344.11;;;-0.83;84.72
53526;BME280;40551;50.478;19.378;2023-01-26T08:22:20;98346.34;;;-0.83;84.84
53526;BME280;40551;50.478;19.378;2023-01-26T08:24:50;98345.30;;;-0.78;84.87
53526;BME280;40551;50.478;19.378;2023-01-26T08:27:22;98342.70;;;-0.76;84.95
53526;BME280;40551;50.478;19.378;2023-01-26T08:29:52;98343.11;;;-0.69;84.70
53526;BME280;40551;50.478;19.378;2023-01-26T08:32:24;98339.36;;;-0.68;84.92
53526;BME280;40551;50.478;19.378;2023-01-26T08:34:54;98345.70;;;-0.64;84.63
53526;BME280;40551;50.478;19.378;2023-01-26T08:37:26;98345.89;;;-0.70;84.34
53526;BME280;40551;50.478;19.378;2023-01-26T08:39:56;98346.73;;;-0.70;84.09
53526;BME280;40551;50.478;19.378;2023-01-26T08:42:27;98341.52;;;-0.77;84.06
53526;BME280;40551;50.478;19.378;2023-01-26T08:44:59;98337.60;;;-0.77;84.12
53526;BME280;40551;50.478;19.378;2023-01-26T08:47:29;98337.92;;;-0.76;84.15
53526;BME280;40551;50.478;19.378;2023-01-26T08:50:01;98340.58;;;-0.79;83.96
53526;BME280;40551;50.478;19.378;2023-01-26T08:52:33;98342.52;;;-0.76;84.04
53526;BME280;40551;50.478;19.378;2023-01-26T08:55:04;98343.79;;;-0.74;84.12
53526;BME280;40551;50.478;19.378;2023-01-26T08:57:35;98339.05;;;-0.74;84.18
53526;BME280;40551;50.478;19.378;2023-01-26T09:00:06;98346.25;;;-0.66;84.43
53526;BME280;40551;50.478;19.378;2023-01-26T09:02:39;98346.21;;;-0.65;84.32
53526;BME280;40551;50.478;19.378;2023-01-26T09:05:11;98343.31;;;-0.59;84.49
53526;BME280;40551;50.478;19.378;2023-01-26T09:07:43;98343.15;;;-0.55;84.14
53526;BME280;40551;50.478;19.378;2023-01-26T09:10:15;98339.91;;;-0.50;84.39
53526;BME280;40551;50.478;19.378;2023-01-26T09:12:46;98337.36;;;-0.45;84.14
53526;BME280;40551;50.478;19.378;2023-01-26T09:15:17;98333.89;;;-0.44;83.85
53526;BME280;40551;50.478;19.378;2023-01-26T09:17:49;98325.85;;;-0.48;83.96
53526;BME280;40551;50.478;19.378;2023-01-26T09:20:21;98322.03;;;-0.46;83.73
53526;BME280;40551;50.478;19.378;2023-01-26T09:22:53;98321.81;;;-0.44;83.79
53526;BME280;40551;50.478;19.378;2023-01-26T09:25:23;98318.99;;;-0.42;83.73
53526;BME280;40551;50.478;19.378;2023-01-26T09:27:55;98319.86;;;-0.42;83.94
53526;BME280;40551;50.478;19.378;2023-01-26T09:30:27;98316.46;;;-0.38;83.85
53526;BME280;40551;50.478;19.378;2023-01-26T09:33:00;98316.27;;;-0.32;83.91
53526;BME280;40551;50.478;19.378;2023-01-26T09:35:32;98313.38;;;-0.28;83.68
53526;BME280;40551;50.478;19.378;2023-01-26T09:38:02;98311.05;;;-0.29;83.14
53526;BME280;40551;50.478;19.378;2023-01-26T09:40:39;98306.23;;;-0.32;83.67
53526;BME280;40551;50.478;19.378;2023-01-26T09:43:23;98309.30;;;-0.28;83.46
53526;BME280;40551;50.478;19.378;2023-01-26T09:46:07;98311.17;;;-0.24;83.71
53526;BME280;40551;50.478;19.378;2023-01-26T09:48:48;98311.63;;;-0.17;83.54
53526;BME280;40551;50.478;19.378;2023-01-26T09:51:27;98308.17;;;-0.12;83.74
53526;BME280;40551;50.478;19.378;2023-01-26T09:54:04;98302.94;;;-0.04;83.96
53526;BME280;40551;50.478;19.378;2023-01-26T09:56:41;98301.41;;;0.05;83.89
53526;BME280;40551;50.478;19.378;2023-01-26T09:59:30;98301.11;;;0.12;83.72
53526;BME280;40551;50.478;19.378;2023-01-26T10:02:19;98301.70;;;0.19;83.75
53526;BME280;40551;50.478;19.378;2023-01-26T10:04:57;98300.23;;;0.22;83.21
53526;BME280;40551;50.478;19.378;2023-01-26T10:07:31;98300.07;;;0.22;82.87
53526;BME280;40551;50.478;19.378;2023-01-26T10:10:03;98300.04;;;0.23;82.53
53526;BME280;40551;50.478;19.378;2023-01-26T10:12:36;98295.46;;;0.26;82.60
53526;BME280;40551;50.478;19.378;2023-01-26T10:15:14;98292.02;;;0.27;82.30
53526;BME280;40551;50.478;19.378;2023-01-26T10:17:50;98293.02;;;0.28;82.44
53526;BME280;40551;50.478;19.378;2023-01-26T10:20:28;98290.54;;;0.30;82.68
53526;BME280;40551;50.478;19.378;2023-01-26T10:23:03;98288.95;;;0.36;82.86
53526;BME280;40551;50.478;19.378;2023-01-26T10:25:37;98288.40;;;0.41;82.68
53526;BME280;40551;50.478;19.378;2023-01-26T10:28:14;98292.39;;;0.43;82.21
53526;BME280;40551;50.478;19.378;2023-01-26T10:30:47;98288.79;;;0.40;81.72
53526;BME280;40551;50.478;19.378;2023-01-26T10:33:24;98287.77;;;0.35;81.81
53526;BME280;40551;50.478;19.378;2023-01-26T10:35:57;98288.02;;;0.34;81.86
53526;BME280;40551;50.478;19.378;2023-01-26T10:41:26;98286.14;;;0.29;82.13
53526;BME280;40551;50.478;19.378;2023-01-26T10:44:00;98279.97;;;0.30;81.79
53526;BME280;40551;50.478;19.378;2023-01-26T10:46:35;98275.06;;;0.29;81.88
53526;BME280;40551;50.478;19.378;2023-01-26T10:49:16;98276.27;;;0.28;81.92
53526;BME280;40551;50.478;19.378;2023-01-26T10:52:05;98271.25;;;0.30;82.10
53526;BME280;40551;50.478;19.378;2023-01-26T10:54:37;98270.69;;;0.32;82.04
53526;BME280;40551;50.478;19.378;2023-01-26T10:57:16;98269.04;;;0.34;82.22
53526;BME280;40551;50.478;19.378;2023-01-26T10:59:54;98264.98;;;0.33;81.70
53526;BME280;40551;50.478;19.378;2023-01-26T11:02:28;98263.34;;;0.28;81.26
53526;BME280;40551;50.478;19.378;2023-01-26T11:05:15;98264.50;;;0.24;81.97
53526;BME280;40551;50.478;19.378;2023-01-26T11:07:49;98262.59;;;0.25;82.14
53526;BME280;40551;50.478;19.378;2023-01-26T11:10:28;98260.05;;;0.29;82.25
53526;BME280;40551;50.478;19.378;2023-01-26T11:13:11;98256.77;;;0.34;82.26
53526;BME280;40551;50.478;19.378;2023-01-26T11:15:45;98255.05;;;0.35;81.91
53526;BME280;40551;50.478;19.378;2023-01-26T11:18:25;98253.52;;;0.34;81.98
53526;BME280;40551;50.478;19.378;2023-01-26T11:21:04;98249.61;;;0.34;81.97
53526;BME280;40551;50.478;19.378;2023-01-26T11:23:57;98248.27;;;0.33;81.93
53526;BME280;40551;50.478;19.378;2023-01-26T11:26:52;98251.90;;;0.32;81.65
53526;BME280;40551;50.478;19.378;2023-01-26T11:29:40;98248.31;;;0.32;81.81
53526;BME280;40551;50.478;19.378;2023-01-26T11:32:19;98242.23;;;0.35;81.93
53526;BME280;40551;50.478;19.378;2023-01-26T11:35:02;98238.09;;;0.36;81.89
53526;BME280;40551;50.478;19.378;2023-01-26T11:37:44;98232.02;;;0.38;81.85
53526;BME280;40551;50.478;19.378;2023-01-26T11:40:29;98227.64;;;0.41;81.67
53526;BME280;40551;50.478;19.378;2023-01-26T11:43:23;98222.84;;;0.37;81.52
53526;BME280;40551;50.478;19.378;2023-01-26T11:46:19;98219.49;;;0.36;81.77
53526;BME280;40551;50.478;19.378;2023-01-26T11:49:06;98217.33;;;0.39;81.72
53526;BME280;40551;50.478;19.378;2023-01-26T11:51:50;98220.52;;;0.40;81.75
53526;BME280;40551;50.478;19.378;2023-01-26T11:54:37;98217.60;;;0.41;81.67
53526;BME280;40551;50.478;19.378;2023-01-26T11:57:19;98218.16;;;0.39;81.70
53526;BME280;40551;50.478;19.378;2023-01-26T11:59:59;98213.85;;;0.40;81.69
53526;BME280;40551;50.478;19.378;2023-01-26T12:02:44;98207.75;;;0.43;82.21
53526;BME280;40551;50.478;19.378;2023-01-26T12:05:21;98200.52;;;0.45;81.94
53526;BME280;40551;50.478;19.378;2023-01-26T12:07:58;98192.05;;;0.48;81.93
53526;BME280;40551;50.478;19.378;2023-01-26T12:10:35;98189.27;;;0.49;81.86
53526;BME280;40551;50.478;19.378;2023-01-26T12:13:17;98186.94;;;0.52;81.88
53526;BME280;40551;50.478;19.378;2023-01-26T12:15:57;98181.76;;;0.57;81.98
53526;BME280;40551;50.478;19.378;2023-01-26T12:18:35;98177.23;;;0.62;81.70
53526;BME280;40551;50.478;19.378;2023-01-26T12:21:30;98173.13;;;0.67;81.77
53526;BME280;40551;50.478;19.378;2023-01-26T12:24:07;98171.61;;;0.75;81.99
53526;BME280;40551;50.478;19.378;2023-01-26T12:27:04;98171.59;;;0.83;82.06
53526;BME280;40551;50.478;19.378;2023-01-26T12:29:46;98161.52;;;0.87;81.73
53526;BME280;40551;50.478;19.378;2023-01-26T12:32:20;98158.51;;;0.90;81.25
53526;BME280;40551;50.478;19.378;2023-01-26T12:34:52;98156.92;;;0.94;81.57
53526;BME280;40551;50.478;19.378;2023-01-26T12:37:25;98156.14;;;1.00;81.52
53526;BME280;40551;50.478;19.378;2023-01-26T12:40:10;98144.45;;;1.02;81.76
53526;BME280;40551;50.478;19.378;2023-01-26T12:42:47;98143.65;;;1.08;81.22
53526;BME280;40551;50.478;19.378;2023-01-26T12:45:23;98144.66;;;1.13;81.46
53526;BME280;40551;50.478;19.378;2023-01-26T12:48:06;98143.48;;;1.20;81.44
53526;BME280;40551;50.478;19.378;2023-01-26T12:50:44;98144.41;;;1.25;81.20
53526;BME280;40551;50.478;19.378;2023-01-26T12:53:21;98146.57;;;1.27;80.82
53526;BME280;40551;50.478;19.378;2023-01-26T12:56:09;98144.59;;;1.26;80.58
53526;BME280;40551;50.478;19.378;2023-01-26T12:58:44;98144.86;;;1.27;80.96
53526;BME280;40551;50.478;19.378;2023-01-26T13:01:18;98148.52;;;1.29;80.88
53526;BME280;40551;50.478;19.378;2023-01-26T13:03:55;98146.16;;;1.32;80.88
53526;BME280;40551;50.478;19.378;2023-01-26T13:06:28;98144.85;;;1.31;80.32
53526;BME280;40551;50.478;19.378;2023-01-26T13:09:17;98145.94;;;1.26;80.20
53526;BME280;40551;50.478;19.378;2023-01-26T13:11:54;98142.33;;;1.19;80.20
53526;BME280;40551;50.478;19.378;2023-01-26T13:14:29;98144.03;;;1.19;80.63
53526;BME280;40551;50.478;19.378;2023-01-26T13:20:24;98147.48;;;1.19;80.69
53526;BME280;40551;50.478;19.378;2023-01-26T13:22:56;98148.52;;;1.22;80.63
53526;BME280;40551;50.478;19.378;2023-01-26T13:25:28;98146.14;;;1.22;80.27
53526;BME280;40551;50.478;19.378;2023-01-26T13:28:02;98148.55;;;1.10;79.93
53526;BME280;40551;50.478;19.378;2023-01-26T13:30:42;98154.60;;;1.04;79.91
53526;BME280;40551;50.478;19.378;2023-01-26T13:33:18;98153.36;;;1.02;80.09
53526;BME280;40551;50.478;19.378;2023-01-26T13:35:52;98153.11;;;0.99;80.16
53526;BME280;40551;50.478;19.378;2023-01-26T13:38:29;98148.52;;;0.95;80.26
53526;BME280;40551;50.478;19.378;2023-01-26T13:41:07;98146.00;;;0.94;80.24
53526;BME280;40551;50.478;19.378;2023-01-26T13:43:43;98145.77;;;0.92;80.24
53526;BME280;40551;50.478;19.378;2023-01-26T13:46:22;98143.52;;;0.89;80.06